createdAt,value
2022-12-03T00:00:38.016Z,0.00
2022-12-03T00:01:36.358Z,0.00
2022-12-03T00:02:44.283Z,0.00
2022-12-03T00:03:37.336Z,0.00
2022-12-03T00:04:51.567Z,0.00
2022-12-03T00:05:52.453Z,0.00
2022-12-03T00:06:36.282Z,0.00
2022-12-03T00:07:51.376Z,0.00
2022-12-03T00:08:51.976Z,0.00
2022-12-03T00:09:51.056Z,0.00
2022-12-03T00:10:36.897Z,0.00
2022-12-03T00:11:51.866Z,0.00
2022-12-03T00:12:52.207Z,0.00
2022-12-03T00:13:37.071Z,0.00
2022-12-03T00:14:41.273Z,0.00
2022-12-03T00:16:02.928Z,0.00
2022-12-03T00:16:36.276Z,0.00
2022-12-03T00:17:36.686Z,0.00
2022-12-03T00:18:36.069Z,0.00
2022-12-03T00:19:39.706Z,0.00
2022-12-03T00:20:51.497Z,0.00
2022-12-03T00:21:37.296Z,0.00
2022-12-03T00:22:36.653Z,0.00
2022-12-03T00:23:42.234Z,0.00
2022-12-03T00:25:27.513Z,0.00
2022-12-03T00:25:36.856Z,0.00
2022-12-03T00:26:37.247Z,0.00
2022-12-03T00:27:36.586Z,0.00
2022-12-03T00:29:01.957Z,0.00
2022-12-03T00:29:36.335Z,0.00
2022-12-03T00:30:36.746Z,0.00
2022-12-03T00:31:36.158Z,0.00
2022-12-03T00:33:02.501Z,0.00
2022-12-03T00:33:35.817Z,0.00
2022-12-03T00:34:37.256Z,0.00
2022-12-03T00:35:36.609Z,0.00
2022-12-03T00:37:02.068Z,0.00
2022-12-03T00:37:36.376Z,0.00
2022-12-03T00:38:35.716Z,0.00
2022-12-03T00:39:39.233Z,0.00
2022-12-03T00:40:38.606Z,0.00
2022-12-03T00:41:36.917Z,0.00
2022-12-03T00:42:36.362Z,0.00
2022-12-03T00:43:35.621Z,0.00
2022-12-03T00:44:36.993Z,0.00
2022-12-03T00:45:36.436Z,0.00
2022-12-03T00:46:35.812Z,0.00
2022-12-03T00:47:36.192Z,0.00
2022-12-03T00:48:36.627Z,0.00
2022-12-03T00:50:37.017Z,0.00
2022-12-03T00:51:36.427Z,0.00
2022-12-03T00:52:35.732Z,0.00
2022-12-03T00:53:36.176Z,0.00
2022-12-03T00:54:38.567Z,0.00
2022-12-03T00:56:01.866Z,0.00
2022-12-03T00:56:36.196Z,0.00
2022-12-03T00:57:36.571Z,0.00
2022-12-03T00:58:38.039Z,0.00
2022-12-03T00:59:37.286Z,0.04
2022-12-03T01:00:36.647Z,0.00
2022-12-03T01:01:37.046Z,0.04
2022-12-03T01:02:38.421Z,0.00
2022-12-03T01:03:35.694Z,0.00
2022-12-03T01:04:36.177Z,0.00
2022-12-03T01:05:35.382Z,0.00
2022-12-03T01:06:35.786Z,0.00
2022-12-03T01:07:36.190Z,0.00
2022-12-03T01:08:38.572Z,0.00
2022-12-03T01:09:50.606Z,0.00
2022-12-03T01:10:36.166Z,0.00
2022-12-03T01:11:35.496Z,0.00
2022-12-03T01:12:35.860Z,0.00
2022-12-03T01:13:36.236Z,0.00
2022-12-03T01:14:36.497Z,0.00
2022-12-03T01:16:35.326Z,0.00
2022-12-03T01:17:35.596Z,0.04
2022-12-03T01:18:36.992Z,0.00
2022-12-03T01:19:36.307Z,0.00
2022-12-03T01:20:35.654Z,0.00
2022-12-03T01:21:36.121Z,0.00
2022-12-03T01:22:36.357Z,0.00
2022-12-03T01:23:36.727Z,0.00
2022-12-03T01:24:37.096Z,0.00
2022-12-03T01:25:36.402Z,0.00
2022-12-03T01:26:35.308Z,0.00
2022-12-03T01:27:38.806Z,0.00
2022-12-03T01:28:35.174Z,0.00
2022-12-03T01:29:35.511Z,0.00
2022-12-03T01:30:35.852Z,0.00
2022-12-03T01:31:35.242Z,0.00
2022-12-03T01:32:35.488Z,0.00
2022-12-03T01:33:35.877Z,0.00
2022-12-03T01:34:35.141Z,0.00
2022-12-03T01:35:35.466Z,0.00
2022-12-03T01:36:35.817Z,0.00
2022-12-03T01:37:36.075Z,0.00
2022-12-03T01:38:35.402Z,0.00
2022-12-03T01:39:36.017Z,0.00
2022-12-03T01:40:35.058Z,0.00
2022-12-03T01:41:37.489Z,0.00
2022-12-03T01:42:35.723Z,0.00
2022-12-03T01:44:15.637Z,0.00
2022-12-03T01:44:35.406Z,0.00
2022-12-03T01:45:35.886Z,0.00
2022-12-03T01:46:35.164Z,0.00
2022-12-03T01:47:35.461Z,0.00
2022-12-03T01:48:36.792Z,0.00
2022-12-03T01:49:49.751Z,0.00
2022-12-03T01:50:50.135Z,0.00
2022-12-03T01:51:50.482Z,0.00
2022-12-03T01:52:35.226Z,0.00
2022-12-03T01:53:37.692Z,0.00
2022-12-03T01:54:50.806Z,0.00
2022-12-03T01:55:35.324Z,0.00
2022-12-03T01:56:35.716Z,0.00
2022-12-03T01:57:35.017Z,0.00
2022-12-03T01:58:35.361Z,0.00
2022-12-03T01:59:35.767Z,0.00
2022-12-03T02:00:35.099Z,0.00
2022-12-03T02:01:34.807Z,0.00
2022-12-03T02:02:35.197Z,0.00
2022-12-03T02:03:35.494Z,0.00
2022-12-03T02:05:27.782Z,0.00
2022-12-03T02:05:35.079Z,0.00
2022-12-03T02:06:35.391Z,0.00
2022-12-03T02:08:00.895Z,0.00
2022-12-03T02:08:34.631Z,0.00
2022-12-03T02:09:37.047Z,0.00
2022-12-03T02:10:35.332Z,0.00
2022-12-03T02:11:35.683Z,0.00
2022-12-03T02:12:34.996Z,0.00
2022-12-03T02:14:34.618Z,0.00
2022-12-03T02:15:34.962Z,0.00
2022-12-03T02:16:35.356Z,0.00
2022-12-03T02:17:35.663Z,0.00
2022-12-03T02:18:34.981Z,0.00
2022-12-03T02:19:35.632Z,0.00
2022-12-03T02:20:34.656Z,0.00
2022-12-03T02:21:35.001Z,0.00
2022-12-03T02:22:34.660Z,0.00
2022-12-03T02:23:35.012Z,0.00
2022-12-03T02:24:34.334Z,0.00
2022-12-03T02:25:34.744Z,0.00
2022-12-03T02:26:35.137Z,0.00
2022-12-03T02:27:34.446Z,0.00
2022-12-03T02:28:34.841Z,0.00
2022-12-03T02:29:35.211Z,0.00
2022-12-03T02:30:34.545Z,0.00
2022-12-03T02:31:35.043Z,0.00
2022-12-03T02:32:36.377Z,0.00
2022-12-03T02:33:34.632Z,0.00
2022-12-03T02:35:34.309Z,0.00
2022-12-03T02:36:35.727Z,0.00
2022-12-03T02:37:36.092Z,0.00
2022-12-03T02:38:36.435Z,0.00
2022-12-03T02:39:35.198Z,0.00
2022-12-03T02:40:34.501Z,0.00
2022-12-03T02:41:34.882Z,0.00
2022-12-03T02:42:34.527Z,0.00
2022-12-03T02:43:42.112Z,0.00
2022-12-03T02:44:34.938Z,0.00
2022-12-03T02:45:34.227Z,0.00
2022-12-03T02:46:34.613Z,0.00
2022-12-03T02:47:34.922Z,0.04
2022-12-03T02:48:34.182Z,0.00
2022-12-03T02:49:34.114Z,0.00
2022-12-03T02:50:34.471Z,0.00
2022-12-03T02:51:34.823Z,0.00
2022-12-03T02:52:34.127Z,0.00
2022-12-03T02:53:34.538Z,0.00
2022-12-03T02:55:37.090Z,0.00
2022-12-03T02:56:34.524Z,0.00
2022-12-03T02:58:24.843Z,0.00
2022-12-03T02:58:34.180Z,0.00
2022-12-03T02:59:34.016Z,0.00
2022-12-03T03:00:34.365Z,0.00
2022-12-03T03:01:34.792Z,0.00
2022-12-03T03:03:14.544Z,0.00
2022-12-03T03:03:34.321Z,0.00
2022-12-03T03:04:34.731Z,0.00
2022-12-03T03:05:34.917Z,0.04
2022-12-03T03:06:34.301Z,0.00
2022-12-03T03:07:34.777Z,0.00
2022-12-03T03:08:33.940Z,0.00
2022-12-03T03:09:34.285Z,0.00
2022-12-03T03:10:33.981Z,0.00
2022-12-03T03:11:33.987Z,0.00
2022-12-03T03:12:38.960Z,0.00
2022-12-03T03:13:34.727Z,0.00
2022-12-03T03:14:34.098Z,0.00
2022-12-03T03:15:34.539Z,0.00
2022-12-03T03:16:33.869Z,0.00
2022-12-03T03:17:34.230Z,0.00
2022-12-03T03:18:34.538Z,0.00
2022-12-03T03:19:33.861Z,0.00
2022-12-03T03:20:34.211Z,0.00
2022-12-03T03:21:34.703Z,0.00
2022-12-03T03:22:33.922Z,0.00
2022-12-03T03:24:33.586Z,0.00
2022-12-03T03:26:35.427Z,0.00
2022-12-03T03:27:34.682Z,0.00
2022-12-03T03:29:35.307Z,0.00
2022-12-03T03:30:35.690Z,0.00
2022-12-03T03:31:35.078Z,0.00
2022-12-03T03:32:34.511Z,0.00
2022-12-03T03:33:33.711Z,0.00
2022-12-03T03:34:34.061Z,0.00
2022-12-03T03:35:35.376Z,0.00
2022-12-03T03:37:35.148Z,0.00
2022-12-03T03:39:36.161Z,0.00
2022-12-03T03:41:56.731Z,0.00
2022-12-03T03:42:02.972Z,0.00
2022-12-03T03:43:03.766Z,0.00
2022-12-03T03:44:04.612Z,0.00
2022-12-03T03:45:02.957Z,0.00
2022-12-03T03:46:03.359Z,0.00
2022-12-03T03:47:18.271Z,0.00
2022-12-03T03:48:02.991Z,0.00
2022-12-03T03:49:03.383Z,0.00
2022-12-03T03:50:04.722Z,0.00
2022-12-03T03:51:05.002Z,0.00
2022-12-03T03:52:03.361Z,0.00
2022-12-03T03:54:11.321Z,0.00
2022-12-03T03:55:03.371Z,0.00
2022-12-03T03:56:04.662Z,0.00
2022-12-03T03:57:03.024Z,0.00
2022-12-03T03:58:09.621Z,0.00
2022-12-03T04:00:03.112Z,0.00
2022-12-03T04:01:03.448Z,0.00
2022-12-03T04:02:02.708Z,0.00
2022-12-03T04:03:04.018Z,0.00
2022-12-03T04:04:02.432Z,0.00
2022-12-03T04:05:02.732Z,0.00
2022-12-03T04:06:04.081Z,0.00
2022-12-03T04:07:04.451Z,0.00
2022-12-03T04:08:03.831Z,0.00
2022-12-03T04:09:02.832Z,0.00
2022-12-03T04:10:02.146Z,0.00
2022-12-03T04:11:06.842Z,0.00
2022-12-03T04:12:02.819Z,0.00
2022-12-03T04:13:03.146Z,0.00
2022-12-03T04:14:02.454Z,0.00
2022-12-03T04:15:03.727Z,0.00
2022-12-03T04:16:13.711Z,0.00
2022-12-03T04:17:02.459Z,0.00
2022-12-03T04:18:02.732Z,0.00
2022-12-03T04:19:03.131Z,0.00
2022-12-03T04:20:02.452Z,0.00
2022-12-03T04:21:04.803Z,0.00
2022-12-03T04:23:02.512Z,0.00
2022-12-03T04:24:03.842Z,0.00
2022-12-03T04:25:02.181Z,0.00
2022-12-03T04:26:02.577Z,0.00
2022-12-03T04:27:03.886Z,0.00
2022-12-03T04:29:02.016Z,0.00
2022-12-03T04:30:03.386Z,0.00
2022-12-03T04:31:02.759Z,0.00
2022-12-03T04:32:02.048Z,0.00
2022-12-03T04:33:04.415Z,0.00
2022-12-03T04:34:02.802Z,0.00
2022-12-03T04:35:02.160Z,0.04
2022-12-03T04:36:02.536Z,0.00
2022-12-03T04:37:02.891Z,0.00
2022-12-03T04:38:02.211Z,0.00
2022-12-03T04:39:03.822Z,0.00
2022-12-03T04:40:01.954Z,0.00
2022-12-03T04:41:04.470Z,0.00
2022-12-03T04:42:03.586Z,0.00
2022-12-03T04:43:03.036Z,0.00
2022-12-03T04:44:03.444Z,0.00
2022-12-03T04:45:01.938Z,0.00
2022-12-03T04:46:02.120Z,0.00
2022-12-03T04:47:02.427Z,0.00
2022-12-03T04:49:03.146Z,0.00
2022-12-03T04:50:03.597Z,0.00
2022-12-03T04:51:01.792Z,0.00
2022-12-03T04:52:03.208Z,0.00
2022-12-03T04:53:03.576Z,0.00
2022-12-03T04:54:01.857Z,0.00
2022-12-03T04:55:04.284Z,0.00
2022-12-03T04:56:03.603Z,0.00
2022-12-03T04:57:01.879Z,0.00
2022-12-03T04:58:04.247Z,0.00
2022-12-03T04:59:03.661Z,0.00
2022-12-03T05:00:01.916Z,0.00
2022-12-03T05:01:04.403Z,0.00
2022-12-03T05:02:01.668Z,0.04
2022-12-03T05:03:01.986Z,0.00
2022-12-03T05:04:02.362Z,0.00
2022-12-03T05:05:01.665Z,0.00
2022-12-03T05:06:02.017Z,0.00
2022-12-03T05:07:02.465Z,0.00
2022-12-03T05:08:02.807Z,0.00
2022-12-03T05:09:04.019Z,0.00
2022-12-03T05:10:03.406Z,0.00
2022-12-03T05:11:02.728Z,0.00
2022-12-03T05:12:33.410Z,0.00
2022-12-03T05:13:01.362Z,0.00
2022-12-03T05:14:01.681Z,0.00
2022-12-03T05:15:30.151Z,0.00
2022-12-03T05:16:03.443Z,0.00
2022-12-03T05:17:01.761Z,0.00
2022-12-03T05:18:33.552Z,0.00
2022-12-03T05:19:01.411Z,0.00
2022-12-03T05:20:10.136Z,0.00
2022-12-03T05:21:02.172Z,0.00
2022-12-03T05:22:01.535Z,0.00
2022-12-03T05:23:08.151Z,0.00
2022-12-03T05:24:03.356Z,0.00
2022-12-03T05:25:02.666Z,0.00
2022-12-03T05:26:01.985Z,0.00
2022-12-03T05:27:01.349Z,0.04
2022-12-03T05:28:01.732Z,0.00
2022-12-03T05:29:02.128Z,0.00
2022-12-03T05:30:01.522Z,0.00
2022-12-03T05:31:02.926Z,0.00
2022-12-03T05:32:01.176Z,0.00
2022-12-03T05:33:02.616Z,0.00
2022-12-03T05:34:02.980Z,0.00
2022-12-03T05:36:01.656Z,0.00
2022-12-03T05:37:02.036Z,0.00
2022-12-03T05:38:01.366Z,0.00
2022-12-03T05:40:03.197Z,0.00
2022-12-03T05:41:01.546Z,0.00
2022-12-03T05:42:02.952Z,0.00
2022-12-03T05:43:32.480Z,0.04
2022-12-03T05:44:01.706Z,0.00
2022-12-03T05:45:00.973Z,0.00
2022-12-03T05:46:01.370Z,0.00
2022-12-03T05:47:02.226Z,0.00
2022-12-03T05:48:02.071Z,0.00
2022-12-03T05:49:29.507Z,0.00
2022-12-03T05:50:01.741Z,0.00
2022-12-03T05:51:04.216Z,0.00
2022-12-03T05:52:01.540Z,0.00
2022-12-03T05:53:00.817Z,0.00
2022-12-03T05:54:03.225Z,0.00
2022-12-03T05:55:32.772Z,0.00
2022-12-03T05:56:00.862Z,0.00
2022-12-03T05:57:01.206Z,0.00
2022-12-03T05:58:28.701Z,0.00
2022-12-03T05:59:03.020Z,0.00
2022-12-03T06:00:01.277Z,0.00
2022-12-03T06:01:01.675Z,0.00
2022-12-03T06:02:01.062Z,0.00
2022-12-03T06:03:01.538Z,0.00
2022-12-03T06:04:01.848Z,0.00
2022-12-03T06:05:01.106Z,0.00
2022-12-03T06:06:01.485Z,0.00
2022-12-03T06:07:00.836Z,0.00
2022-12-03T06:08:04.371Z,0.02
2022-12-03T06:09:01.537Z,0.00
2022-12-03T06:10:02.986Z,0.00
2022-12-03T06:11:01.255Z,0.00
2022-12-03T06:12:01.589Z,0.00
2022-12-03T06:13:01.964Z,0.00
2022-12-03T06:14:03.346Z,0.00
2022-12-03T06:15:00.598Z,0.00
2022-12-03T06:16:01.205Z,0.02
2022-12-03T06:17:01.347Z,0.00
2022-12-03T06:18:02.779Z,0.02
2022-12-03T06:19:01.071Z,0.01
2022-12-03T06:20:01.418Z,0.01
2022-12-03T06:21:02.895Z,0.00
2022-12-03T06:22:02.220Z,0.00
2022-12-03T06:23:01.507Z,0.01
2022-12-03T06:24:01.903Z,0.01
2022-12-03T06:25:06.601Z,0.02
2022-12-03T06:26:01.548Z,0.02
2022-12-03T06:27:00.988Z,0.00
2022-12-03T06:28:01.300Z,0.01
2022-12-03T06:29:15.222Z,0.05
2022-12-03T06:30:03.119Z,0.01
2022-12-03T06:31:00.493Z,0.03
2022-12-03T06:33:07.011Z,0.02
2022-12-03T06:33:13.772Z,0.02
2022-12-03T06:34:12.916Z,0.02
2022-12-03T06:35:14.287Z,0.03
2022-12-03T06:36:14.528Z,0.03
2022-12-03T06:37:15.035Z,0.04
2022-12-03T06:38:13.467Z,0.04
2022-12-03T06:39:14.777Z,0.11
2022-12-03T06:40:15.246Z,0.05
2022-12-03T06:41:13.581Z,0.36
2022-12-03T06:42:12.897Z,0.16
2022-12-03T06:43:15.286Z,0.15
2022-12-03T06:44:13.677Z,0.16
2022-12-03T06:45:16.125Z,0.18
2022-12-03T06:46:14.506Z,0.30
2022-12-03T06:47:12.696Z,0.18
2022-12-03T06:48:20.666Z,0.21
2022-12-03T06:49:13.559Z,0.25
2022-12-03T06:50:12.827Z,0.30
2022-12-03T06:51:19.447Z,0.36
2022-12-03T06:52:14.621Z,0.41
2022-12-03T06:53:12.907Z,0.48
2022-12-03T06:54:19.437Z,0.57
2022-12-03T06:55:13.662Z,0.65
2022-12-03T06:56:13.011Z,0.75
2022-12-03T06:57:14.338Z,0.88
2022-12-03T06:58:15.738Z,0.99
2022-12-03T06:59:15.087Z,1.13
2022-12-03T07:00:13.492Z,1.28
2022-12-03T07:01:12.859Z,1.46
2022-12-03T07:02:20.467Z,1.67
2022-12-03T07:03:13.619Z,1.84
2022-12-03T07:04:12.896Z,2.11
2022-12-03T07:05:27.871Z,2.45
2022-12-03T07:06:13.621Z,2.67
2022-12-03T07:07:12.951Z,2.95
2022-12-03T07:08:27.898Z,3.25
2022-12-03T07:09:13.707Z,3.46
2022-12-03T07:10:13.016Z,3.69
2022-12-03T07:11:14.487Z,3.87
2022-12-03T07:12:13.697Z,3.99
2022-12-03T07:13:13.117Z,4.20
2022-12-03T07:14:28.088Z,4.54
2022-12-03T07:15:13.856Z,4.79
2022-12-03T07:16:13.252Z,5.15
2022-12-03T07:17:28.217Z,5.71
2022-12-03T07:18:12.906Z,6.00
2022-12-03T07:19:19.796Z,6.57
2022-12-03T07:20:13.601Z,7.01
2022-12-03T07:21:16.067Z,7.47
2022-12-03T07:22:17.454Z,7.94
2022-12-03T07:23:14.762Z,8.49
2022-12-03T07:24:14.012Z,9.13
2022-12-03T07:25:12.378Z,9.66
2022-12-03T07:26:13.732Z,10.06
2022-12-03T07:27:13.125Z,10.33
2022-12-03T07:28:12.466Z,10.75
2022-12-03T07:29:13.862Z,11.48
2022-12-03T07:30:12.146Z,11.87
2022-12-03T07:31:12.876Z,12.45
2022-12-03T07:32:13.777Z,12.91
2022-12-03T07:33:16.248Z,13.47
2022-12-03T07:34:14.658Z,13.90
2022-12-03T07:35:13.936Z,14.36
2022-12-03T07:36:13.256Z,14.90
2022-12-03T07:37:15.009Z,15.52
2022-12-03T07:38:15.276Z,16.26
2022-12-03T07:39:17.421Z,17.04
2022-12-03T07:40:12.791Z,17.76
2022-12-03T07:41:13.097Z,18.49
2022-12-03T07:42:19.533Z,19.38
2022-12-03T07:43:14.678Z,20.10
2022-12-03T07:44:14.778Z,20.72
2022-12-03T07:45:13.449Z,21.25
2022-12-03T07:46:16.874Z,21.79
2022-12-03T07:47:12.975Z,22.27
2022-12-03T07:48:12.469Z,22.80
2022-12-03T07:49:14.841Z,23.21
2022-12-03T07:50:13.048Z,23.57
2022-12-03T07:51:15.461Z,23.80
2022-12-03T07:52:23.177Z,23.88
2022-12-03T07:53:13.132Z,23.79
2022-12-03T07:54:13.457Z,23.58
2022-12-03T07:55:12.652Z,23.37
2022-12-03T07:56:13.057Z,23.21
2022-12-03T07:57:13.412Z,23.07
2022-12-03T07:58:15.871Z,22.92
2022-12-03T07:59:13.046Z,22.79
2022-12-03T08:00:16.697Z,22.89
2022-12-03T08:01:18.174Z,22.84
2022-12-03T08:02:14.716Z,22.69
2022-12-03T08:03:18.774Z,22.42
2022-12-03T08:04:13.856Z,21.94
2022-12-03T08:05:13.142Z,21.41
2022-12-03T08:06:16.607Z,21.07
2022-12-03T08:07:11.907Z,20.89
2022-12-03T08:08:14.201Z,20.94
2022-12-03T08:09:16.196Z,21.18
2022-12-03T08:10:12.752Z,21.44
2022-12-03T08:11:13.202Z,21.65
2022-12-03T08:12:13.487Z,21.98
2022-12-03T08:13:11.897Z,22.49
2022-12-03T08:14:12.241Z,23.11
2022-12-03T08:15:13.097Z,23.66
2022-12-03T08:16:14.020Z,24.00
2022-12-03T08:17:13.100Z,24.51
2022-12-03T08:18:19.907Z,24.90
2022-12-03T08:19:12.981Z,25.03
2022-12-03T08:20:13.482Z,25.40
2022-12-03T08:21:11.784Z,26.14
2022-12-03T08:22:12.076Z,27.03
2022-12-03T08:23:11.437Z,27.66
2022-12-03T08:24:12.797Z,28.37
2022-12-03T08:25:13.097Z,29.00
2022-12-03T08:26:19.032Z,29.49
2022-12-03T08:27:12.817Z,29.81
2022-12-03T08:28:12.238Z,30.26
2022-12-03T08:29:14.501Z,30.53
2022-12-03T08:30:13.396Z,30.56
2022-12-03T08:31:13.280Z,30.41
2022-12-03T08:32:11.799Z,30.17
2022-12-03T08:33:12.935Z,29.98
2022-12-03T08:34:13.267Z,29.78
2022-12-03T08:35:12.316Z,29.41
2022-12-03T08:36:12.812Z,28.90
2022-12-03T08:37:11.732Z,28.41
2022-12-03T08:38:13.123Z,27.71
2022-12-03T08:39:21.227Z,26.97
2022-12-03T08:40:13.456Z,26.97
2022-12-03T08:41:14.763Z,27.54
2022-12-03T08:42:13.977Z,28.57
2022-12-03T08:43:12.353Z,29.88
2022-12-03T08:44:11.847Z,31.46
2022-12-03T08:45:12.120Z,32.67
2022-12-03T08:46:11.678Z,33.85
2022-12-03T08:47:12.618Z,34.91
2022-12-03T08:48:13.192Z,35.93
2022-12-03T08:49:26.192Z,37.30
2022-12-03T08:50:12.967Z,38.25
2022-12-03T08:51:26.847Z,39.74
2022-12-03T08:52:12.563Z,40.79
2022-12-03T08:53:11.591Z,42.22
2022-12-03T08:54:11.386Z,43.66
2022-12-03T08:55:14.742Z,45.30
2022-12-03T08:56:12.032Z,46.87
2022-12-03T08:57:11.491Z,48.58
2022-12-03T08:58:12.538Z,49.99
2022-12-03T08:59:14.757Z,50.95
2022-12-03T09:00:12.457Z,51.51
2022-12-03T09:01:12.588Z,51.63
2022-12-03T09:02:12.440Z,51.20
2022-12-03T09:03:13.742Z,51.15
2022-12-03T09:04:12.038Z,50.59
2022-12-03T09:05:11.442Z,50.10
2022-12-03T09:06:12.037Z,49.87
2022-12-03T09:07:11.918Z,49.77
2022-12-03T09:08:12.476Z,49.52
2022-12-03T09:09:12.817Z,49.02
2022-12-03T09:10:11.281Z,48.35
2022-12-03T09:11:12.972Z,47.74
2022-12-03T09:12:36.952Z,47.52
2022-12-03T09:13:12.217Z,47.59
2022-12-03T09:14:16.849Z,48.13
2022-12-03T09:15:12.891Z,49.13
2022-12-03T09:16:11.403Z,50.32
2022-12-03T09:17:27.207Z,51.60
2022-12-03T09:18:12.871Z,52.45
2022-12-03T09:19:12.493Z,53.97
2022-12-03T09:20:12.228Z,55.97
2022-12-03T09:21:30.867Z,59.09
2022-12-03T09:22:12.247Z,60.56
2022-12-03T09:23:11.629Z,62.29
2022-12-03T09:24:12.713Z,62.81
2022-12-03T09:25:11.492Z,63.09
2022-12-03T09:26:11.847Z,64.17
2022-12-03T09:27:12.196Z,64.58
2022-12-03T09:28:12.746Z,64.67
2022-12-03T09:29:12.634Z,65.20
2022-12-03T09:30:12.982Z,65.35
2022-12-03T09:31:10.642Z,65.98
2022-12-03T09:32:16.679Z,66.91
2022-12-03T09:33:12.262Z,68.19
2022-12-03T09:34:10.738Z,69.58
2022-12-03T09:35:10.959Z,70.74
2022-12-03T09:36:11.738Z,72.11
2022-12-03T09:37:10.643Z,72.76
2022-12-03T09:38:15.263Z,73.72
2022-12-03T09:39:12.331Z,74.91
2022-12-03T09:40:11.018Z,75.77
2022-12-03T09:41:11.937Z,76.43
2022-12-03T09:42:12.928Z,76.54
2022-12-03T09:43:10.922Z,75.34
2022-12-03T09:44:17.517Z,74.18
2022-12-03T09:45:12.363Z,74.41
2022-12-03T09:46:12.283Z,75.52
2022-12-03T09:47:12.147Z,76.87
2022-12-03T09:48:10.521Z,77.86
2022-12-03T09:49:15.548Z,78.42
2022-12-03T09:50:12.122Z,78.73
2022-12-03T09:51:11.262Z,78.86
2022-12-03T09:52:11.756Z,78.38
2022-12-03T09:53:12.587Z,77.87
2022-12-03T09:54:11.411Z,76.97
2022-12-03T09:55:12.843Z,76.34
2022-12-03T09:56:11.782Z,76.00
2022-12-03T09:57:10.489Z,75.60
2022-12-03T09:58:10.872Z,75.67
2022-12-03T09:59:10.191Z,76.08
2022-12-03T10:00:11.477Z,76.72
2022-12-03T10:01:10.957Z,77.29
2022-12-03T10:02:10.224Z,78.83
2022-12-03T10:03:11.562Z,81.64
2022-12-03T10:04:11.691Z,85.67
2022-12-03T10:05:11.510Z,89.94
2022-12-03T10:06:10.625Z,93.63
2022-12-03T10:07:11.992Z,96.35
2022-12-03T10:08:11.303Z,97.33
2022-12-03T10:09:11.672Z,96.80
2022-12-03T10:10:11.682Z,95.71
2022-12-03T10:11:12.397Z,96.10
2022-12-03T10:12:10.732Z,97.70
2022-12-03T10:13:11.512Z,98.18
2022-12-03T10:14:11.401Z,97.41
2022-12-03T10:15:10.907Z,95.23
2022-12-03T10:16:11.550Z,92.56
2022-12-03T10:17:12.635Z,91.12
2022-12-03T10:18:11.832Z,90.28
2022-12-03T10:19:11.159Z,91.17
2022-12-03T10:20:16.712Z,91.33
2022-12-03T10:21:11.937Z,91.17
2022-12-03T10:22:10.602Z,89.99
2022-12-03T10:23:14.823Z,87.55
2022-12-03T10:24:13.127Z,85.80
2022-12-03T10:25:10.428Z,85.61
2022-12-03T10:26:12.823Z,86.82
2022-12-03T10:27:11.662Z,88.99
2022-12-03T10:28:13.024Z,90.88
2022-12-03T10:29:11.808Z,91.99
2022-12-03T10:30:10.182Z,92.57
2022-12-03T10:31:10.690Z,93.42
2022-12-03T10:32:09.893Z,95.09
2022-12-03T10:33:17.386Z,96.32
2022-12-03T10:34:12.615Z,97.10
2022-12-03T10:35:12.977Z,97.77
2022-12-03T10:36:11.182Z,97.81
2022-12-03T10:37:13.883Z,96.14
2022-12-03T10:38:10.825Z,94.06
2022-12-03T10:39:11.234Z,93.97
2022-12-03T10:40:10.998Z,95.81
2022-12-03T10:41:11.023Z,97.86
2022-12-03T10:42:10.449Z,98.36
2022-12-03T10:43:10.217Z,98.52
2022-12-03T10:44:12.041Z,99.01
2022-12-03T10:45:11.431Z,99.01
2022-12-03T10:46:10.897Z,100.35
2022-12-03T10:47:11.137Z,102.06
2022-12-03T10:48:09.980Z,103.62
2022-12-03T10:49:10.982Z,104.98
2022-12-03T10:50:14.221Z,105.04
2022-12-03T10:51:10.591Z,103.42
2022-12-03T10:52:09.982Z,100.61
2022-12-03T10:53:10.304Z,97.44
2022-12-03T10:54:10.642Z,95.54
2022-12-03T10:55:11.493Z,94.23
2022-12-03T10:56:11.397Z,93.32
2022-12-03T10:57:11.943Z,92.20
2022-12-03T10:58:10.091Z,91.08
2022-12-03T10:59:10.367Z,89.91
2022-12-03T11:00:12.929Z,88.76
2022-12-03T11:01:10.927Z,87.84
2022-12-03T11:02:10.344Z,86.54
2022-12-03T11:03:10.913Z,85.46
2022-12-03T11:04:11.572Z,84.62
2022-12-03T11:05:10.312Z,84.54
2022-12-03T11:06:10.603Z,85.38
2022-12-03T11:07:10.187Z,87.44
2022-12-03T11:08:09.508Z,89.58
2022-12-03T11:09:10.901Z,90.57
2022-12-03T11:10:11.167Z,90.95
2022-12-03T11:11:10.691Z,91.00
2022-12-03T11:12:11.913Z,91.28
2022-12-03T11:13:10.041Z,90.04
2022-12-03T11:14:21.243Z,88.06
2022-12-03T11:15:11.888Z,85.99
2022-12-03T11:16:16.981Z,83.86
2022-12-03T11:17:09.557Z,82.96
2022-12-03T11:18:09.926Z,82.95
2022-12-03T11:19:16.142Z,84.19
2022-12-03T11:20:10.627Z,86.61
2022-12-03T11:21:12.837Z,91.40
2022-12-03T11:22:11.217Z,97.77
2022-12-03T11:23:10.556Z,104.24
2022-12-03T11:24:10.757Z,109.91
2022-12-03T11:25:12.255Z,114.35
2022-12-03T11:26:12.997Z,117.91
2022-12-03T11:27:11.421Z,119.54
2022-12-03T11:28:11.208Z,120.33
2022-12-03T11:29:12.482Z,121.13
2022-12-03T11:30:11.038Z,121.48
2022-12-03T11:31:52.829Z,120.49
2022-12-03T11:32:10.978Z,120.01
2022-12-03T11:33:11.336Z,117.16
2022-12-03T11:35:29.245Z,109.11
2022-12-03T11:35:36.043Z,108.63
2022-12-03T11:37:00.731Z,104.36
2022-12-03T11:37:38.219Z,101.50
2022-12-03T11:39:17.745Z,100.44
2022-12-03T11:39:37.857Z,100.57
2022-12-03T11:40:39.593Z,100.59
2022-12-03T11:41:35.527Z,100.67
2022-12-03T11:42:35.868Z,102.93
2022-12-03T11:44:01.166Z,108.34
2022-12-03T11:44:35.586Z,109.83
2022-12-03T11:45:37.954Z,110.13
2022-12-03T11:46:36.251Z,107.90
2022-12-03T11:48:02.524Z,103.26
2022-12-03T11:48:34.877Z,101.65
2022-12-03T11:49:37.037Z,100.36
2022-12-03T11:50:40.058Z,101.16
2022-12-03T11:51:36.531Z,102.80
2022-12-03T11:52:35.982Z,105.94
2022-12-03T11:53:36.228Z,108.75
2022-12-03T11:54:34.851Z,111.01
2022-12-03T11:55:35.412Z,112.47
2022-12-03T11:56:36.363Z,115.32
2022-12-03T11:57:36.778Z,120.60
2022-12-03T11:58:35.186Z,125.81
2022-12-03T11:59:37.356Z,129.60
2022-12-03T12:00:36.752Z,133.82
2022-12-03T12:01:38.807Z,138.91
2022-12-03T12:02:38.454Z,144.12
2022-12-03T12:04:08.143Z,152.95
2022-12-03T12:04:35.307Z,158.08
2022-12-03T12:05:35.472Z,161.89
2022-12-03T12:06:35.186Z,159.62
2022-12-03T12:07:39.249Z,158.14
2022-12-03T12:08:36.144Z,148.83
2022-12-03T12:09:39.914Z,140.51
2022-12-03T12:10:36.127Z,130.74
2022-12-03T12:11:41.843Z,120.52
2022-12-03T12:12:36.859Z,114.48
2022-12-03T12:13:35.203Z,110.55
2022-12-03T12:14:35.516Z,107.99
2022-12-03T12:15:50.227Z,105.55
2022-12-03T12:16:36.289Z,104.93
2022-12-03T12:17:51.132Z,104.29
2022-12-03T12:18:54.693Z,103.36
2022-12-03T12:19:36.966Z,101.52
2022-12-03T12:20:37.622Z,100.25
2022-12-03T12:22:31.011Z,101.97
2022-12-03T12:22:38.696Z,102.06
2022-12-03T12:23:38.446Z,102.32
2022-12-03T12:24:36.876Z,103.30
2022-12-03T12:25:37.438Z,104.77
2022-12-03T12:26:37.597Z,104.28
2022-12-03T12:27:37.746Z,102.29
2022-12-03T12:28:39.196Z,100.16
2022-12-03T12:29:38.545Z,98.68
2022-12-03T12:30:52.436Z,97.63
2022-12-03T12:31:54.167Z,96.91
2022-12-03T12:33:29.712Z,94.86
2022-12-03T12:33:38.278Z,94.70
2022-12-03T12:34:37.297Z,94.06
2022-12-03T12:35:52.834Z,94.41
2022-12-03T12:36:36.786Z,95.00
2022-12-03T12:37:58.541Z,96.53
2022-12-03T12:38:38.492Z,96.88
2022-12-03T12:39:53.915Z,95.80
2022-12-03T12:40:45.524Z,94.51
2022-12-03T12:41:39.514Z,94.08
2022-12-03T12:42:38.833Z,94.44
2022-12-03T12:43:38.147Z,95.26
2022-12-03T12:45:29.664Z,97.60
2022-12-03T12:45:36.805Z,97.97
2022-12-03T12:46:47.774Z,99.23
2022-12-03T12:47:54.089Z,100.92
2022-12-03T12:48:36.886Z,102.63
2022-12-03T12:49:53.160Z,104.53
2022-12-03T12:50:39.617Z,105.26
2022-12-03T12:51:37.737Z,106.51
2022-12-03T12:52:37.832Z,108.46
2022-12-03T12:53:37.560Z,109.83
2022-12-03T12:54:37.957Z,110.58
2022-12-03T12:55:38.121Z,111.01
2022-12-03T12:56:36.956Z,112.42
2022-12-03T12:57:37.006Z,112.99
2022-12-03T12:58:36.301Z,112.49
2022-12-03T12:59:37.646Z,112.75
2022-12-03T13:00:38.008Z,115.25
2022-12-03T13:01:40.963Z,117.59
2022-12-03T13:02:36.747Z,118.88
2022-12-03T13:03:37.819Z,118.92
2022-12-03T13:04:38.276Z,117.88
2022-12-03T13:05:37.951Z,118.06
2022-12-03T13:06:39.253Z,119.74
2022-12-03T13:07:36.536Z,122.36
2022-12-03T13:08:39.945Z,127.92
2022-12-03T13:09:37.227Z,132.99
2022-12-03T13:10:37.513Z,136.10
2022-12-03T13:11:37.662Z,138.34
2022-12-03T13:13:02.323Z,137.48
2022-12-03T13:13:43.129Z,136.03
2022-12-03T13:14:37.947Z,133.23
2022-12-03T13:15:44.518Z,130.02
2022-12-03T13:16:52.246Z,125.89
2022-12-03T13:17:39.503Z,123.40
2022-12-03T13:18:37.499Z,119.86
2022-12-03T13:20:00.510Z,118.23
2022-12-03T13:20:37.017Z,117.63
2022-12-03T13:21:36.697Z,115.97